Time;durP1;ratioP1;P1;durP2;ratioP2;P2;SDS_P1;SDS_P2;PMS_P1;PMS_P2;Temp;Humidity;BMP_temperature;BMP_pressure;BME280_temperature;BME280_humidity;BME280_pressure;Samples;Min_cycle;Max_cycle;Signal;HPM_P1;HPM_P2
2023/12/18 00:02:16;;;;;;;125.85;57.17;;;16.10;67.30;;;;;;5060935;28;20037;-47
2023/12/18 00:04:41;;;;;;;126.10;57.20;;;16.10;67.40;;;;;;5059222;28;20039;-46
2023/12/18 00:07:07;;;;;;;126.60;57.72;;;16.10;67.40;;;;;;5061719;28;20044;-47
2023/12/18 00:09:33;;;;;;;127.32;57.58;;;16.00;67.20;;;;;;5062696;28;20099;-47
2023/12/18 00:11:58;;;;;;;126.20;57.05;;;16.00;67.30;;;;;;5059291;28;20038;-48
2023/12/18 00:14:24;;;;;;;124.10;56.15;;;16.00;67.20;;;;;;5060408;28;20033;-47
2023/12/18 00:16:50;;;;;;;125.85;57.42;;;16.00;67.50;;;;;;5060224;28;20064;-46
2023/12/18 00:19:15;;;;;;;126.00;57.55;;;15.90;67.50;;;;;;5053268;28;20072;-47
2023/12/18 00:21:41;;;;;;;124.40;56.75;;;15.90;67.40;;;;;;5064137;28;20033;-46
2023/12/18 00:24:07;;;;;;;124.90;56.65;;;15.90;67.50;;;;;;5061001;28;20052;-47
2023/12/18 00:26:32;;;;;;;126.80;56.92;;;15.90;67.40;;;;;;5057479;28;20043;-47
2023/12/18 00:28:58;;;;;;;126.65;57.35;;;15.90;67.50;;;;;;5056666;28;20091;-47
2023/12/18 00:31:23;;;;;;;124.75;57.22;;;15.80;67.20;;;;;;5057357;28;20103;-48
2023/12/18 00:33:49;;;;;;;124.00;56.47;;;15.80;67.30;;;;;;5060462;28;20036;-47
2023/12/18 00:36:15;;;;;;;126.80;57.03;;;15.80;67.30;;;;;;5057028;28;20049;-47
2023/12/18 00:38:40;;;;;;;124.88;56.72;;;15.80;67.40;;;;;;5053972;28;20506;-47
2023/12/18 00:41:06;;;;;;;124.40;56.88;;;15.70;67.30;;;;;;5056277;28;20110;-47
2023/12/18 00:43:31;;;;;;;125.07;56.92;;;15.70;67.30;;;;;;5058419;28;22708;-47
2023/12/18 00:45:57;;;;;;;125.18;57.03;;;15.70;67.50;;;;;;5054824;28;20068;-47
2023/12/18 00:48:23;;;;;;;124.78;56.88;;;15.70;67.40;;;;;;5056600;28;20037;-47
2023/12/18 00:50:48;;;;;;;124.78;56.60;;;15.70;67.30;;;;;;5054877;28;20512;-47
2023/12/18 00:53:16;;;;;;;125.43;57.17;;;15.70;67.40;;;;;;5057740;28;20120;-47
2023/12/18 00:55:45;;;;;;;125.32;56.83;;;15.70;67.20;;;;;;5055138;28;20037;-46
2023/12/18 00:58:11;;;;;;;123.70;56.53;;;15.70;67.30;;;;;;5053888;28;20049;-47
2023/12/18 01:00:36;;;;;;;123.72;56.65;;;15.70;67.20;;;;;;5058084;28;20041;-47
2023/12/18 01:03:03;;;;;;;124.68;56.78;;;15.70;67.20;;;;;;5054003;28;20042;-47
2023/12/18 01:05:29;;;;;;;124.60;56.97;;;15.70;67.30;;;;;;5055639;28;20052;-47
2023/12/18 01:07:54;;;;;;;125.72;57.15;;;15.70;67.30;;;;;;5058622;28;20929;-47
2023/12/18 01:10:20;;;;;;;124.88;57.05;;;15.60;67.10;;;;;;5055226;28;20033;-47
2023/12/18 01:12:45;;;;;;;125.53;57.33;;;15.70;67.20;;;;;;5058311;28;20599;-47
2023/12/18 01:15:12;;;;;;;125.82;57.25;;;15.60;67.00;;;;;;5060720;28;20049;-47
2023/12/18 01:17:37;;;;;;;123.85;56.80;;;15.60;67.10;;;;;;5055768;28;20110;-47
2023/12/18 01:20:05;;;;;;;124.45;56.40;;;15.60;67.20;;;;;;5054481;28;20037;-47
2023/12/18 01:22:30;;;;;;;125.40;57.47;;;15.60;67.30;;;;;;5056083;28;20040;-46
2023/12/18 01:24:56;;;;;;;125.20;57.03;;;15.60;67.10;;;;;;5061237;28;20041;-48
2023/12/18 01:27:22;;;;;;;126.05;57.38;;;15.60;67.30;;;;;;5055473;28;20042;-47
2023/12/18 01:29:47;;;;;;;124.80;57.13;;;15.60;67.30;;;;;;5060677;28;20033;-47
2023/12/18 01:32:13;;;;;;;125.47;57.33;;;15.60;67.30;;;;;;5057822;28;20036;-45
2023/12/18 01:34:38;;;;;;;128.60;56.85;;;15.50;67.50;;;;;;5055361;28;20981;-45
2023/12/18 01:37:05;;;;;;;126.15;57.33;;;15.50;67.40;;;;;;5061288;28;20140;-45
2023/12/18 01:39:32;;;;;;;126.70;57.25;;;15.50;67.60;;;;;;5056390;28;20590;-45
2023/12/18 01:41:59;;;;;;;124.88;56.90;;;15.50;67.50;;;;;;5053182;28;20044;-45
2023/12/18 01:44:25;;;;;;;125.97;56.58;;;15.50;67.40;;;;;;5054676;28;20065;-44
2023/12/18 01:46:51;;;;;;;126.53;57.25;;;15.50;67.50;;;;;;5054771;28;20044;-45
2023/12/18 01:49:17;;;;;;;127.18;57.20;;;15.50;67.50;;;;;;5061709;28;20075;-45
2023/12/18 01:51:43;;;;;;;125.82;57.38;;;15.50;67.40;;;;;;5052973;28;20127;-44
2023/12/18 01:54:10;;;;;;;123.88;56.42;;;15.40;67.50;;;;;;5057223;28;20041;-45
2023/12/18 01:56:36;;;;;;;129.43;57.42;;;15.50;67.50;;;;;;5057933;28;20040;-45
2023/12/18 01:59:02;;;;;;;126.25;57.00;;;15.40;67.50;;;;;;5056819;28;20049;-44
2023/12/18 02:01:31;;;;;;;126.00;57.53;;;15.40;67.50;;;;;;5050568;28;20567;-45
2023/12/18 02:03:58;;;;;;;124.65;56.85;;;15.40;67.70;;;;;;5054653;28;20072;-45
2023/12/18 02:06:24;;;;;;;127.05;57.50;;;15.40;67.50;;;;;;5048446;28;20037;-45
2023/12/18 02:08:49;;;;;;;125.93;57.30;;;15.40;67.50;;;;;;5056432;28;20037;-45
2023/12/18 02:11:15;;;;;;;126.95;57.10;;;15.40;67.40;;;;;;5056586;28;20029;-45
2023/12/18 02:13:41;;;;;;;124.57;57.00;;;15.40;67.60;;;;;;5054164;28;20076;-45
2023/12/18 02:16:07;;;;;;;126.18;56.83;;;15.30;67.50;;;;;;5059879;28;20128;-45
2023/12/18 02:18:32;;;;;;;124.65;56.72;;;15.40;67.60;;;;;;5056940;28;20161;-45
2023/12/18 02:20:58;;;;;;;123.22;56.00;;;15.30;67.50;;;;;;5059525;28;20506;-45
2023/12/18 02:23:24;;;;;;;124.55;57.25;;;15.30;67.50;;;;;;5061510;28;20041;-45
2023/12/18 02:25:50;;;;;;;124.28;56.95;;;15.30;67.50;;;;;;5059538;28;20038;-45
2023/12/18 02:28:17;;;;;;;124.47;56.65;;;15.30;67.50;;;;;;5063068;28;20252;-44
2023/12/18 02:30:43;;;;;;;124.65;56.63;;;15.30;67.50;;;;;;5057876;28;20047;-45
2023/12/18 02:33:09;;;;;;;123.45;56.90;;;15.30;67.50;;;;;;5061090;28;20968;-45
2023/12/18 02:35:34;;;;;;;124.07;56.78;;;15.30;67.50;;;;;;5055658;28;20110;-45
2023/12/18 02:38:00;;;;;;;125.15;56.90;;;15.30;67.50;;;;;;5062753;28;20612;-45
2023/12/18 02:40:26;;;;;;;124.80;56.97;;;15.30;67.50;;;;;;5065368;28;20427;-45
2023/12/18 02:42:52;;;;;;;124.85;57.42;;;15.30;67.50;;;;;;5060053;28;20064;-45
2023/12/18 02:45:18;;;;;;;124.63;57.20;;;15.30;67.40;;;;;;5057486;28;20127;-45
2023/12/18 02:47:43;;;;;;;124.47;57.08;;;15.30;67.50;;;;;;5058032;28;20526;-45
2023/12/18 02:50:09;;;;;;;123.70;56.85;;;15.20;67.40;;;;;;5057312;28;20045;-45
2023/12/18 02:52:35;;;;;;;124.68;57.20;;;15.20;67.50;;;;;;5057525;28;20040;-46
2023/12/18 02:55:00;;;;;;;124.95;57.42;;;15.20;67.40;;;;;;5066185;28;20033;-46
2023/12/18 02:57:27;;;;;;;124.68;56.75;;;15.20;67.40;;;;;;5062284;28;20049;-46
2023/12/18 02:59:53;;;;;;;124.75;57.47;;;15.20;67.30;;;;;;5059753;28;20033;-47
2023/12/18 03:02:18;;;;;;;124.40;57.08;;;15.20;67.60;;;;;;5060160;28;20041;-46
2023/12/18 03:04:44;;;;;;;122.07;55.97;;;15.20;67.40;;;;;;5057396;28;20055;-47
2023/12/18 03:07:10;;;;;;;123.90;57.05;;;15.20;67.50;;;;;;5059929;28;20041;-46
2023/12/18 03:09:37;;;;;;;124.82;56.80;;;15.20;67.40;;;;;;5054602;28;20033;-47
2023/12/18 03:12:03;;;;;;;125.43;57.40;;;15.20;67.40;;;;;;5057891;28;20072;-47
2023/12/18 03:14:28;;;;;;;123.78;56.63;;;15.10;67.40;;;;;;5064391;28;20771;-47
2023/12/18 03:16:54;;;;;;;122.47;56.85;;;15.10;67.60;;;;;;5060800;28;20984;-47
2023/12/18 03:19:19;;;;;;;124.10;56.75;;;15.10;67.50;;;;;;5063824;28;20637;-46
2023/12/18 03:21:46;;;;;;;124.72;57.10;;;15.10;67.60;;;;;;5052823;28;20418;-46
2023/12/18 03:24:11;;;;;;;125.45;57.15;;;15.10;67.50;;;;;;5057669;28;20041;-47
2023/12/18 03:26:37;;;;;;;124.18;57.25;;;15.10;67.50;;;;;;5058584;28;20048;-47
2023/12/18 03:29:04;;;;;;;123.53;56.55;;;15.10;67.60;;;;;;5055414;28;20060;-47
2023/12/18 03:31:29;;;;;;;124.95;57.33;;;15.10;67.50;;;;;;5061191;28;20056;-46
2023/12/18 03:33:55;;;;;;;125.43;57.40;;;15.10;67.60;;;;;;5059166;28;20131;-47
2023/12/18 03:36:21;;;;;;;124.35;57.38;;;15.10;67.50;;;;;;5057003;28;20524;-47
2023/12/18 03:38:46;;;;;;;124.55;57.33;;;15.00;67.50;;;;;;5054988;28;20136;-47
2023/12/18 03:41:12;;;;;;;125.03;57.35;;;15.10;67.50;;;;;;5054218;28;20120;-46
2023/12/18 03:43:38;;;;;;;124.80;57.38;;;15.00;67.50;;;;;;5054824;28;20088;-46
2023/12/18 03:46:05;;;;;;;125.25;57.38;;;15.00;67.50;;;;;;5062368;28;20053;-47
2023/12/18 03:48:30;;;;;;;125.72;57.58;;;15.00;67.40;;;;;;5063671;28;20597;-47
2023/12/18 03:50:56;;;;;;;124.47;57.30;;;15.00;67.40;;;;;;5059934;28;20525;-47
2023/12/18 03:53:21;;;;;;;124.47;57.25;;;15.00;67.30;;;;;;5059727;28;20037;-47
2023/12/18 03:55:47;;;;;;;125.30;57.45;;;15.00;67.50;;;;;;5060945;28;20037;-47
2023/12/18 03:58:13;;;;;;;125.20;57.33;;;15.00;67.60;;;;;;5061256;28;20040;-47
2023/12/18 04:00:38;;;;;;;124.13;57.10;;;15.00;67.70;;;;;;5055605;28;20052;-47
2023/12/18 04:03:04;;;;;;;123.65;57.47;;;15.00;68.00;;;;;;5059054;28;20110;-47
2023/12/18 04:05:30;;;;;;;124.72;57.13;;;15.00;68.10;;;;;;5054302;28;20055;-47
2023/12/18 04:07:56;;;;;;;124.45;57.38;;;15.00;68.20;;;;;;5054956;28;20037;-47
2023/12/18 04:10:22;;;;;;;124.65;57.08;;;15.00;68.30;;;;;;5058411;28;20036;-46
2023/12/18 04:12:47;;;;;;;123.30;56.97;;;14.90;68.20;;;;;;5057539;28;20083;-47
2023/12/18 04:15:13;;;;;;;123.70;57.25;;;14.90;68.20;;;;;;5054466;28;20056;-47
2023/12/18 04:17:39;;;;;;;124.28;56.95;;;14.90;68.40;;;;;;5061021;28;20040;-47
2023/12/18 04:20:05;;;;;;;124.75;57.40;;;14.90;68.40;;;;;;5059161;28;20207;-48
2023/12/18 04:22:32;;;;;;;122.85;56.78;;;14.90;68.40;;;;;;5058191;28;20045;-47
2023/12/18 04:24:58;;;;;;;125.82;57.25;;;14.90;68.60;;;;;;5055484;28;20049;-46
2023/12/18 04:27:24;;;;;;;124.05;57.40;;;14.90;68.50;;;;;;5059541;28;20041;-47
2023/12/18 04:29:50;;;;;;;123.95;57.03;;;14.90;68.70;;;;;;5061162;28;20045;-46
2023/12/18 04:32:15;;;;;;;125.15;57.20;;;14.90;68.80;;;;;;5056896;28;20100;-47
2023/12/18 04:34:42;;;;;;;122.47;56.58;;;14.90;68.80;;;;;;5063433;28;20176;-47
2023/12/18 04:37:09;;;;;;;125.57;57.58;;;14.90;68.60;;;;;;5052590;28;20037;-47
2023/12/18 04:39:35;;;;;;;124.35;57.28;;;14.90;68.70;;;;;;5055655;28;20045;-47
2023/12/18 04:42:00;;;;;;;125.97;57.60;;;14.90;68.70;;;;;;5056889;28;20041;-46
2023/12/18 04:44:26;;;;;;;125.57;58.10;;;14.80;68.70;;;;;;5054974;28;20514;-47
2023/12/18 04:46:53;;;;;;;125.15;57.55;;;14.90;68.80;;;;;;5053870;28;20056;-47
2023/12/18 04:49:19;;;;;;;122.78;56.70;;;14.80;68.80;;;;;;5063129;28;20948;-47
2023/12/18 04:51:44;;;;;;;126.25;57.63;;;14.90;68.90;;;;;;5058404;28;20103;-46
2023/12/18 04:54:10;;;;;;;125.93;57.50;;;14.80;68.70;;;;;;5052607;28;20083;-47
2023/12/18 04:56:36;;;;;;;124.15;56.80;;;14.90;68.70;;;;;;5057131;28;20036;-47
2023/12/18 04:59:02;;;;;;;124.57;57.53;;;14.80;68.80;;;;;;5056568;28;20040;-47
2023/12/18 05:01:29;;;;;;;125.18;57.55;;;14.80;68.80;;;;;;5047843;28;20155;-47
2023/12/18 05:03:54;;;;;;;127.82;57.55;;;14.80;68.70;;;;;;5056772;28;20112;-47
2023/12/18 05:06:21;;;;;;;124.95;57.45;;;14.80;68.80;;;;;;5056632;28;20986;-47
2023/12/18 05:08:49;;;;;;;125.28;57.78;;;14.80;69.00;;;;;;5060917;28;20040;-46
2023/12/18 05:11:19;;;;;;;123.82;57.22;;;14.80;68.80;;;;;;5051205;28;20033;-46
2023/12/18 05:13:44;;;;;;;126.45;57.30;;;14.80;68.70;;;;;;5052550;28;20045;-47
2023/12/18 05:16:10;;;;;;;126.53;58.28;;;14.80;68.90;;;;;;5054990;28;20083;-47
2023/12/18 05:18:36;;;;;;;126.45;57.63;;;14.80;68.60;;;;;;5058438;28;20037;-47
2023/12/18 05:21:05;;;;;;;125.32;57.53;;;14.80;69.60;;;;;;5057212;28;20128;-47
2023/12/18 05:23:32;;;;;;;125.40;56.75;;;14.80;68.90;;;;;;5056540;28;20044;-47
2023/12/18 05:25:57;;;;;;;124.97;57.67;;;14.80;68.90;;;;;;5058083;28;20048;-47
2023/12/18 05:28:24;;;;;;;125.38;57.80;;;14.80;69.00;;;;;;5061422;28;20661;-47
2023/12/18 05:30:50;;;;;;;125.35;58.33;;;14.80;69.00;;;;;;5060257;28;20038;-47
2023/12/18 05:33:16;;;;;;;126.43;57.78;;;14.80;68.80;;;;;;5054381;28;20507;-47
2023/12/18 05:35:41;;;;;;;123.25;56.67;;;14.80;68.90;;;;;;5059391;28;20032;-47
2023/12/18 05:38:07;;;;;;;126.00;57.97;;;14.80;68.70;;;;;;5056168;28;20029;-46
2023/12/18 05:40:34;;;;;;;126.53;58.30;;;14.80;69.50;;;;;;5056026;28;20061;-47
2023/12/18 05:43:00;;;;;;;126.38;57.60;;;14.80;68.80;;;;;;5054966;28;20049;-47
2023/12/18 05:45:25;;;;;;;125.57;58.03;;;14.80;68.70;;;;;;5055633;28;20051;-47
2023/12/18 05:47:51;;;;;;;124.95;57.95;;;14.70;68.80;;;;;;5054815;28;20030;-47
2023/12/18 05:50:17;;;;;;;125.53;57.88;;;14.70;68.90;;;;;;5056760;28;20573;-47
2023/12/18 05:52:42;;;;;;;125.53;57.95;;;14.70;68.70;;;;;;5059283;28;20112;-47
2023/12/18 05:55:09;;;;;;;126.18;57.60;;;14.70;68.70;;;;;;5060910;28;20056;-47
2023/12/18 05:57:36;;;;;;;125.57;58.10;;;14.80;68.80;;;;;;5055220;28;20043;-47
2023/12/18 06:00:03;;;;;;;126.15;57.92;;;14.70;68.70;;;;;;5065509;28;20564;-47
2023/12/18 06:02:29;;;;;;;126.07;58.20;;;14.70;68.90;;;;;;5056489;28;20167;-47
2023/12/18 06:04:55;;;;;;;124.97;57.80;;;14.80;68.90;;;;;;5058182;28;20745;-47
2023/12/18 06:07:20;;;;;;;125.45;57.33;;;14.80;68.70;;;;;;5051053;28;20137;-48
2023/12/18 06:09:46;;;;;;;128.15;58.55;;;14.70;68.80;;;;;;5056292;28;20517;-49
2023/12/18 06:12:12;;;;;;;125.47;57.83;;;14.70;68.80;;;;;;5049874;28;20048;-48
2023/12/18 06:14:37;;;;;;;126.28;58.53;;;14.70;68.80;;;;;;5055927;28;20044;-47
2023/12/18 06:17:03;;;;;;;127.88;58.75;;;14.70;68.70;;;;;;5061095;28;20041;-47
2023/12/18 06:19:29;;;;;;;125.75;58.50;;;14.70;68.90;;;;;;5055818;28;20049;-47
2023/12/18 06:21:55;;;;;;;128.82;58.25;;;14.70;69.10;;;;;;5054957;28;20045;-47
2023/12/18 06:24:20;;;;;;;130.18;59.20;;;14.70;69.10;;;;;;5059596;28;20065;-48
2023/12/18 06:26:46;;;;;;;126.10;58.03;;;14.70;69.20;;;;;;5056264;28;20502;-48
2023/12/18 06:29:12;;;;;;;127.60;58.83;;;14.70;69.00;;;;;;5057976;28;20500;-47
2023/12/18 06:31:37;;;;;;;127.47;58.33;;;14.70;69.10;;;;;;5058528;28;20044;-48
2023/12/18 06:34:03;;;;;;;126.40;59.13;;;14.70;69.00;;;;;;5055482;28;20175;-48
2023/12/18 06:36:29;;;;;;;127.28;59.40;;;14.70;68.90;;;;;;5057456;28;20033;-47
2023/12/18 06:38:55;;;;;;;128.52;58.85;;;14.60;69.00;;;;;;5049517;28;20042;-47
2023/12/18 06:41:21;;;;;;;134.52;59.22;;;14.60;69.20;;;;;;5050583;28;20052;-48
2023/12/18 06:43:47;;;;;;;125.85;58.10;;;14.70;69.50;;;;;;5054184;28;20041;-47
2023/12/18 06:46:12;;;;;;;127.70;58.03;;;14.70;69.50;;;;;;5059594;28;20543;-47
2023/12/18 06:48:40;;;;;;;129.90;58.42;;;14.70;69.50;;;;;;5063407;28;20669;-48
2023/12/18 06:51:08;;;;;;;126.13;57.78;;;14.60;69.50;;;;;;5058601;28;20033;-48
2023/12/18 06:53:34;;;;;;;125.55;58.35;;;14.60;69.50;;;;;;5059657;28;20087;-47
2023/12/18 06:55:59;;;;;;;125.75;58.40;;;14.60;69.50;;;;;;5054720;28;20025;-47
2023/12/18 06:58:25;;;;;;;127.38;58.75;;;14.60;69.40;;;;;;5053762;28;20052;-48
2023/12/18 07:00:50;;;;;;;130.90;58.20;;;14.60;69.30;;;;;;5054938;28;20078;-47
2023/12/18 07:03:16;;;;;;;125.95;58.08;;;14.60;69.30;;;;;;5057631;28;20038;-48
2023/12/18 07:05:42;;;;;;;128.43;58.78;;;14.50;69.20;;;;;;5057726;28;20036;-47
2023/12/18 07:08:08;;;;;;;128.80;58.63;;;14.60;69.20;;;;;;5055795;28;20065;-48
2023/12/18 07:10:33;;;;;;;126.70;59.42;;;14.60;69.20;;;;;;5057286;28;20167;-47
2023/12/18 07:12:59;;;;;;;127.50;59.55;;;14.50;69.10;;;;;;5058375;28;20110;-47
2023/12/18 07:15:25;;;;;;;127.97;59.38;;;14.50;68.90;;;;;;5058784;28;20167;-47
2023/12/18 07:17:52;;;;;;;127.78;59.50;;;14.40;68.90;;;;;;5061533;28;20069;-47
2023/12/18 07:20:17;;;;;;;127.43;59.78;;;14.40;69.00;;;;;;5057331;28;20045;-47
2023/12/18 07:22:43;;;;;;;127.78;59.30;;;14.40;68.90;;;;;;5061379;28;20037;-47
2023/12/18 07:25:09;;;;;;;131.38;60.00;;;14.40;69.20;;;;;;5060102;28;20037;-47
2023/12/18 07:27:35;;;;;;;129.98;60.13;;;14.50;69.60;;;;;;5061938;28;20041;-48
2023/12/18 07:30:05;;;;;;;129.85;60.58;;;14.50;69.60;;;;;;5056836;28;20040;-47
2023/12/18 07:32:31;;;;;;;129.50;59.88;;;14.60;69.40;;;;;;5058611;28;20030;-46
2023/12/18 07:34:59;;;;;;;128.82;59.90;;;14.60;69.20;;;;;;5062332;28;20056;-45
2023/12/18 07:37:27;;;;;;;149.65;78.22;;;14.60;69.00;;;;;;5055453;28;20040;-46
2023/12/18 07:39:53;;;;;;;145.52;74.95;;;14.60;69.00;;;;;;5058383;28;20086;-45
2023/12/18 07:42:18;;;;;;;148.38;71.43;;;14.70;69.00;;;;;;5057572;28;20037;-46
2023/12/18 07:44:44;;;;;;;140.38;69.88;;;14.70;68.90;;;;;;5062464;28;20037;-46
2023/12/18 07:47:10;;;;;;;142.38;67.93;;;14.90;68.50;;;;;;5063018;28;20415;-45
2023/12/18 07:49:35;;;;;;;139.80;67.75;;;15.00;68.10;;;;;;5062482;28;20524;-46
2023/12/18 07:52:01;;;;;;;142.05;68.05;;;15.00;67.60;;;;;;5054299;28;20116;-46
2023/12/18 07:54:27;;;;;;;134.38;64.80;;;15.10;67.50;;;;;;5058239;28;20951;-45
2023/12/18 07:56:52;;;;;;;140.40;66.15;;;15.10;67.30;;;;;;5060372;28;20550;-45
2023/12/18 07:59:19;;;;;;;142.18;65.65;;;15.10;67.90;;;;;;5060856;28;20613;-46
2023/12/18 08:01:45;;;;;;;145.95;70.78;;;15.20;67.10;;;;;;5055907;28;20037;-46
2023/12/18 08:04:11;;;;;;;138.02;67.82;;;15.20;67.00;;;;;;5053974;28;20041;-45
2023/12/18 08:06:37;;;;;;;135.15;65.93;;;15.30;67.00;;;;;;5053856;28;20041;-45
2023/12/18 08:09:03;;;;;;;139.57;66.40;;;15.30;66.70;;;;;;5056849;28;20550;-45
2023/12/18 08:11:29;;;;;;;140.35;66.43;;;15.50;66.60;;;;;;5058935;28;20147;-46
2023/12/18 08:13:54;;;;;;;135.65;65.28;;;15.60;66.20;;;;;;5061867;28;20044;-46
2023/12/18 08:16:20;;;;;;;136.50;64.93;;;15.60;66.00;;;;;;5056282;28;20045;-46
2023/12/18 08:18:47;;;;;;;139.98;65.38;;;15.70;65.70;;;;;;5054761;28;20045;-46
2023/12/18 08:21:14;;;;;;;134.75;64.07;;;15.70;65.60;;;;;;5053402;28;20053;-45
2023/12/18 08:23:40;;;;;;;135.57;63.95;;;15.70;65.60;;;;;;5058177;28;20587;-46
2023/12/18 08:26:06;;;;;;;136.07;65.50;;;15.70;65.60;;;;;;5062586;28;20041;-46
2023/12/18 08:28:32;;;;;;;140.82;66.63;;;15.70;65.50;;;;;;5059732;28;20041;-45
2023/12/18 08:30:57;;;;;;;134.38;65.10;;;15.60;65.80;;;;;;5058596;28;20707;-46
2023/12/18 08:33:23;;;;;;;142.05;70.00;;;15.60;65.80;;;;;;5062228;28;20105;-46
2023/12/18 08:35:49;;;;;;;139.52;69.72;;;15.60;65.90;;;;;;5061939;28;20123;-47
2023/12/18 08:38:15;;;;;;;141.82;68.35;;;15.60;65.80;;;;;;5060893;28;20041;-46
2023/12/18 08:40:41;;;;;;;153.23;87.20;;;15.70;65.80;;;;;;5057333;28;20494;-48
2023/12/18 08:43:06;;;;;;;152.00;83.10;;;15.60;65.90;;;;;;5057637;28;20153;-49
2023/12/18 08:45:32;;;;;;;145.02;76.90;;;15.70;66.00;;;;;;5059520;28;20045;-48
2023/12/18 08:47:59;;;;;;;145.07;76.30;;;15.70;65.80;;;;;;5057345;28;20044;-48
2023/12/18 08:50:26;;;;;;;148.77;75.32;;;15.80;65.90;;;;;;5061165;28;20144;-48
2023/12/18 08:52:52;;;;;;;145.40;74.25;;;15.80;65.70;;;;;;5052080;28;20044;-48
2023/12/18 08:55:19;;;;;;;147.57;77.45;;;15.80;65.40;;;;;;5059276;28;20517;-49
2023/12/18 08:57:45;;;;;;;146.48;77.18;;;15.70;65.50;;;;;;5059798;28;20041;-48
2023/12/18 09:00:12;;;;;;;145.40;76.47;;;15.80;65.70;;;;;;5058161;28;20044;-48
2023/12/18 09:02:38;;;;;;;144.30;74.20;;;15.80;65.50;;;;;;5063240;28;20108;-48
2023/12/18 09:05:04;;;;;;;141.88;73.28;;;15.90;65.40;;;;;;5057195;28;20040;-48
2023/12/18 09:07:30;;;;;;;142.68;72.40;;;15.90;65.30;;;;;;5059349;28;20041;-48
2023/12/18 09:09:55;;;;;;;140.48;72.30;;;15.90;65.20;;;;;;5057487;28;20032;-48
2023/12/18 09:12:21;;;;;;;143.20;71.00;;;15.90;65.00;;;;;;5059165;28;20032;-49
2023/12/18 09:14:47;;;;;;;139.73;71.45;;;15.90;64.90;;;;;;5063663;28;20041;-48
2023/12/18 09:17:12;;;;;;;140.13;71.05;;;16.00;65.00;;;;;;5066147;28;20032;-47
2023/12/18 09:19:38;;;;;;;137.68;70.95;;;15.90;65.00;;;;;;5062939;28;20040;-48
2023/12/18 09:22:04;;;;;;;137.90;69.38;;;16.00;65.30;;;;;;5057729;28;20029;-48
2023/12/18 09:24:29;;;;;;;136.23;68.50;;;16.00;65.20;;;;;;5065104;28;21351;-48
2023/12/18 09:26:56;;;;;;;136.90;68.88;;;15.90;65.30;;;;;;5063503;28;20029;-48
2023/12/18 09:29:22;;;;;;;140.07;68.40;;;16.00;65.20;;;;;;5057820;28;20098;-48
2023/12/18 09:31:48;;;;;;;137.48;67.43;;;16.00;65.00;;;;;;5053151;28;20029;-40
2023/12/18 09:34:14;;;;;;;137.15;67.38;;;16.10;64.90;;;;;;5057313;28;20202;-38
2023/12/18 09:36:39;;;;;;;134.57;66.88;;;16.10;64.80;;;;;;5053503;28;20103;-38
2023/12/18 09:39:05;;;;;;;138.35;66.63;;;16.10;64.60;;;;;;5054354;28;20044;-40
2023/12/18 09:41:31;;;;;;;133.82;65.60;;;16.10;64.80;;;;;;5058029;28;21342;-39
2023/12/18 09:43:57;;;;;;;137.02;66.03;;;16.10;64.90;;;;;;5054813;28;20793;-38
2023/12/18 09:46:24;;;;;;;134.40;65.20;;;16.20;64.70;;;;;;5056866;28;20037;-40
2023/12/18 09:48:50;;;;;;;134.13;64.90;;;16.20;64.60;;;;;;5061818;28;20064;-39
2023/12/18 09:51:19;;;;;;;132.02;64.13;;;16.20;64.50;;;;;;5057614;28;20087;-39
2023/12/18 09:53:46;;;;;;;133.73;64.22;;;16.20;64.60;;;;;;5059159;28;20120;-38
2023/12/18 09:56:12;;;;;;;133.57;63.20;;;16.20;64.40;;;;;;5060201;28;20041;-38
2023/12/18 09:58:40;;;;;;;132.18;63.10;;;16.30;64.30;;;;;;5061723;28;20030;-40
2023/12/18 10:01:05;;;;;;;134.13;62.95;;;16.30;64.20;;;;;;5055852;28;20116;-40
2023/12/18 10:03:31;;;;;;;134.25;62.95;;;16.20;64.30;;;;;;5057442;28;20840;-41
2023/12/18 10:05:57;;;;;;;131.60;63.42;;;16.30;64.30;;;;;;5054287;28;20048;-40
2023/12/18 10:08:22;;;;;;;130.68;63.20;;;16.20;64.30;;;;;;5058208;28;20037;-41
2023/12/18 10:10:48;;;;;;;134.15;64.85;;;16.30;64.40;;;;;;5056435;28;20033;-38
2023/12/18 10:13:14;;;;;;;133.43;63.40;;;16.20;64.50;;;;;;5058801;28;20087;-39
2023/12/18 10:15:42;;;;;;;131.18;63.00;;;16.20;64.70;;;;;;5059381;28;21270;-38
2023/12/18 10:18:09;;;;;;;132.32;62.88;;;16.20;64.50;;;;;;5056014;28;20099;-39
2023/12/18 10:20:36;;;;;;;134.23;63.67;;;16.20;64.40;;;;;;5058050;28;20455;-38
2023/12/18 10:23:05;;;;;;;131.18;62.83;;;16.20;64.40;;;;;;5057135;28;20030;-38
2023/12/18 10:25:35;;;;;;;130.68;63.10;;;16.20;64.40;;;;;;5058344;28;20041;-38
2023/12/18 10:28:01;;;;;;;132.35;62.53;;;16.20;64.10;;;;;;5054379;28;20040;-42
2023/12/18 10:30:29;;;;;;;132.98;62.10;;;16.20;64.00;;;;;;5054541;28;20989;-39
2023/12/18 10:32:56;;;;;;;168.02;91.18;;;16.20;64.10;;;;;;5061511;28;20190;-41
2023/12/18 10:35:22;;;;;;;177.50;92.03;;;16.20;64.10;;;;;;5062261;28;20266;-39
2023/12/18 10:37:52;;;;;;;160.52;83.70;;;16.20;64.10;;;;;;5058531;28;20048;-40
2023/12/18 10:40:20;;;;;;;160.10;81.40;;;16.20;64.10;;;;;;5059213;28;20053;-41
2023/12/18 10:43:06;;;;;;;154.07;77.70;;;16.20;64.10;;;;;;5057855;28;20060;-38
2023/12/18 10:45:33;;;;;;;150.73;76.50;;;16.20;64.10;;;;;;5061635;28;20037;-41
2023/12/18 10:48:00;;;;;;;153.27;75.93;;;16.30;63.70;;;;;;5058730;28;20044;-38
2023/12/18 10:50:30;;;;;;;147.60;74.28;;;16.30;63.80;;;;;;5060802;28;20033;-37
2023/12/18 10:52:59;;;;;;;150.05;74.45;;;16.40;63.50;;;;;;5055610;28;20060;-39
2023/12/18 10:55:26;;;;;;;143.75;71.43;;;16.40;63.30;;;;;;5064514;28;20038;-41
2023/12/18 10:57:55;;;;;;;145.00;72.10;;;16.40;63.20;;;;;;5056515;28;20034;-40
2023/12/18 11:00:21;;;;;;;145.25;72.28;;;16.40;63.20;;;;;;5060168;28;20049;-38
2023/12/18 11:02:49;;;;;;;144.55;71.63;;;16.50;63.10;;;;;;5063129;28;20040;-39
2023/12/18 11:05:15;;;;;;;142.77;69.15;;;16.50;62.90;;;;;;5058053;28;20053;-39
2023/12/18 11:07:43;;;;;;;144.13;70.13;;;16.50;62.80;;;;;;5058841;28;20531;-39
2023/12/18 11:10:09;;;;;;;140.15;68.60;;;16.50;62.80;;;;;;5062956;28;20489;-40
2023/12/18 11:12:39;;;;;;;139.98;68.20;;;16.50;63.50;;;;;;5058046;28;20045;-41
2023/12/18 11:15:24;;;;;;;138.80;67.50;;;16.50;62.70;;;;;;5065287;28;20037;-41
2023/12/18 11:18:17;;;;;;;138.60;65.68;;;16.50;62.80;;;;;;5068000;28;20068;-41
2023/12/18 11:20:43;;;;;;;136.93;65.25;;;16.40;62.90;;;;;;5065767;28;20041;-41
2023/12/18 11:23:12;;;;;;;139.13;66.38;;;16.30;62.40;;;;;;5056156;28;20044;-50
2023/12/18 11:25:45;;;;;;;135.82;67.38;;;16.10;63.00;;;;;;5059768;28;20629;-42
2023/12/18 11:28:11;;;;;;;137.20;66.28;;;16.10;63.60;;;;;;5060825;28;20802;-38
2023/12/18 11:30:44;;;;;;;137.30;65.10;;;16.20;63.50;;;;;;5062856;28;20076;-39
2023/12/18 11:33:13;;;;;;;139.25;65.40;;;16.30;63.00;;;;;;5060068;28;20167;-38
2023/12/18 11:35:44;;;;;;;135.13;63.78;;;16.30;62.70;;;;;;5063739;28;20045;-39
2023/12/18 11:38:14;;;;;;;135.02;62.08;;;16.40;62.90;;;;;;5062097;28;20028;-39
2023/12/18 11:40:49;;;;;;;133.03;62.33;;;16.40;62.80;;;;;;5060199;28;20045;-39
2023/12/18 11:43:37;;;;;;;133.27;63.95;;;16.40;62.50;;;;;;5057934;28;20056;-38
2023/12/18 11:46:06;;;;;;;135.70;63.92;;;16.40;62.40;;;;;;5062764;28;20578;-37
2023/12/18 11:48:33;;;;;;;139.07;63.00;;;16.40;62.40;;;;;;5065361;28;20037;-41
2023/12/18 11:51:02;;;;;;;134.63;62.38;;;16.50;62.40;;;;;;5066690;28;20037;-40
2023/12/18 11:53:33;;;;;;;133.48;63.05;;;16.50;62.30;;;;;;5060259;28;20116;-39
2023/12/18 11:55:58;;;;;;;133.13;61.63;;;16.50;62.20;;;;;;5062790;28;20553;-38
2023/12/18 11:58:26;;;;;;;131.98;61.92;;;16.50;62.10;;;;;;5067441;28;20041;-39
2023/12/18 12:00:54;;;;;;;133.18;61.72;;;16.60;62.10;;;;;;5057974;28;20108;-40
2023/12/18 12:03:22;;;;;;;134.95;61.40;;;16.60;62.10;;;;;;5061131;28;20045;-39
2023/12/18 12:05:48;;;;;;;131.05;61.47;;;16.50;62.10;;;;;;5060105;28;20600;-38
2023/12/18 12:08:14;;;;;;;164.30;86.70;;;16.50;62.10;;;;;;5060211;28;20033;-41
2023/12/18 12:10:44;;;;;;;161.45;84.32;;;16.50;62.30;;;;;;5063634;28;20104;-39
2023/12/18 12:13:23;;;;;;;150.15;77.57;;;16.50;62.30;;;;;;5061638;28;20029;-42
2023/12/18 12:15:52;;;;;;;146.88;74.68;;;16.40;62.30;;;;;;5059786;28;20115;-39